Joseph Omurwa

Chefscout - Mathare United
22 Feb 2028
Dienstag
Verarbeitung

Persönlichkeit

Anpassungsfähigkeit (4) Ehrgeiz (12) Kontroverse (11) Loyalität (11) Druck (9) Professionalität (10) Fairness (11) Temperament (8)

Profil

Trainerstil Demokratisch
Lizenz Nationale A
Entschlossenheit 7
Menschenführung 3
Motivation 6
Disziplin 2
Arbeitszufriedenheit
100%
Ermüdung
0%
Rolle Chefscout
Gehalt 29.2K p/W
Vertrag 14.03.2030

Leistung

Verhalten Gut
Trainingseffektivität
30%
Spielerentwicklung
20%
Verletzungsprävention
15%
Taktische Umsetzung
25%

Letzte Ereignisse

Spieler begutachtet 7T her
Nahm an einer Scouting-Besprechung teil 7T her
Spieler begutachtet 7T her
Spieler begutachtet 7T her
Spiel beobachtet 7T her
Spieler begutachtet 7T her
Spieler begutachtet 7T her
Spieler begutachtet 7T her

Aktuell beobachtet

203
Spieler Verein Status Fähigkeit Vertrauen Beobachtet Zuletzt beobachtet Letzte Stimme
Ged Garner Newport County Aktiv 73 / 105 40% 1 21.02.2028 -
Jayden Luker Barnet Aktiv 98 / 120 40% 1 21.02.2028 -
Abubakar Adams Aduana Stars Aktiv 68 / 83 40% 1 20.02.2028 -
Josh Sheehan Bolton Wanderers Aktiv 101 / 108 40% 1 20.02.2028 -
Thabiso Msane BA All Stars Aktiv 100 / 95 40% 4 19.02.2028 -
Olwethu Ncube Golden Arrows Aktiv 107 / 91 40% 7 19.02.2028 -
Bruno Figueiredo Zabbar St. Patrick Aktiv 95 / 84 40% 2 19.02.2028 -
Jordan Houghton Stevenage Aktiv 123 / 112 40% 1 19.02.2028 -
Qamar Adegoke Shooting Stars Aktiv 74 / 85 40% 5 17.02.2028 -
Destiny Efosa Egharevba Picerno Aktiv 125 / 94 40% 1 17.02.2028 -
Kyle Knoyle Mansfield Town Aktiv 101 / 107 40% 1 15.02.2028 -
Owen Foye Swindon Town Aktiv 90 / 79 40% 1 15.02.2028 -
Cailin Knock FC Diarra Aktiv 80 / 77 40% 1 14.02.2028 -
Mercury Dlamini US Bougouni Aktiv 108 / 88 40% 1 14.02.2028 -
Ernest Addo Asante Kotoko Aktiv 82 / 80 40% 5 13.02.2028 -
Amadou Makhtarlayi Sarr Trapani Aktiv 95 / 89 40% 3 13.02.2028 -
Abdulaziz Dalhatu Inter Allies Aktiv 85 / 103 40% 2 13.02.2028 -
Víctor Lanosa Bristol Rovers Aktiv 78 / 104 40% 1 13.02.2028 -
Gethin Jones Milton Keynes Dons Aktiv 100 / 117 40% 1 12.02.2028 -
Ben Radcliffe Crawley Town Aktiv 92 / 88 40% 1 12.02.2028 -
Ezekiel Edidiong Enyimba Aktiv 89 / 79 40% 2 10.02.2028 -
Timothy Atamenwan US Bougouba Aktiv 106 / 101 40% 1 10.02.2028 -
Logan Briggs Picerno Aktiv 95 / 83 40% 1 10.02.2028 -
Oliver Rathbone Wrexham Aktiv 131 / 109 40% 1 07.02.2028 -
Sulayman Jallow Vis Pesaro Aktiv 91 / 112 40% 1 07.02.2028 -
Sunday Akinbule US Forces Armees Aktiv 102 / 74 40% 1 07.02.2028 -
Macula Birkirkara Aktiv 86 / 90 40% 2 05.02.2028 -
Carlos Richards Bromley Aktiv 84 / 89 40% 1 05.02.2028 -
Dan Edwards Fortuna Mfou Aktiv 105 / 93 40% 1 03.02.2028 -
Ricardo Dinanga Shrewsbury Town Aktiv 111 / 92 40% 1 03.02.2028 -
Enock Asubonteng Hearts of Oak Aktiv 91 / 90 40% 1 02.02.2028 -
Benson Omalla Nairobi United Aktiv 90 / 96 40% 10 01.02.2028 -
Hassan Beja AFC Leopards Aktiv 102 / 98 40% 2 01.02.2028 -
Joseph Mwangi Kariobangi Sharks Aktiv 90 / 66 40% 3 01.02.2028 -
Vincent Owino Tusker Aktiv 69 / 81 40% 1 01.02.2028 -
Boniface Onyango Kakamega Homeboyz Aktiv 96 / 91 40% 1 31.01.2028 -
Vincent Mahiga AFC Leopards Aktiv 72 / 84 40% 1 31.01.2028 -
Derrick Otanga Kakamega Homeboyz Aktiv 86 / 94 40% 6 30.01.2028 -
Enrico Baldini Bra Aktiv 112 / 94 40% 1 29.01.2028 -
Mandla Dolly Black Aces Aktiv 78 / 77 40% 2 28.01.2028 -
Paul Odhiambo Ulinzi Stars Aktiv 83 / 67 40% 1 28.01.2028 -
William Wadri Bandari Aktiv 92 / 68 40% 10 27.01.2028 -
Oratile Rantasi Etoiles du Mande Aktiv 87 / 89 40% 2 26.01.2028 -
Mohammed Katana Elect Sport Aktiv 70 / 75 40% 1 26.01.2028 -
Michael Jairo Elect Sport Aktiv 63 / 85 40% 3 24.01.2028 -
Keegan Ndemi Kariobangi Sharks Aktiv 70 / 77 40% 2 24.01.2028 -
Ibrahim Shambi Ulinzi Stars Aktiv 71 / 67 40% 2 23.01.2028 -
Harrison Mwendwa Posta Rangers Aktiv 93 / 80 40% 2 22.01.2028 -
Ian Simiyu Jr. Tusker Aktiv 95 / 76 40% 3 22.01.2028 -
Japheth Lihanda Sofapaka Aktiv 80 / 61 40% 1 21.01.2028 -
Collins Odhiambo Tusker Aktiv 69 / 86 40% 1 21.01.2028 -
Alvin Mangeni Kenya Police Aktiv 87 / 87 40% 5 20.01.2028 -
Hassan Abdallah Bandari Aktiv 92 / 82 40% 4 20.01.2028 -
Jackson Dwang Posta Rangers Aktiv 83 / 76 40% 1 19.01.2028 -
Dennis Oalo Tusker Aktiv 84 / 79 40% 6 18.01.2028 -
Ben Thompson Burton Albion Aktiv 108 / 91 40% 1 18.01.2028 -
Humphrey Obina Shabana Aktiv 63 / 63 40% 1 18.01.2028 -
Clinton Omondi Ulinzi Stars Aktiv 89 / 68 40% 4 17.01.2028 -
Thomas Wainaina Bidco United Aktiv 86 / 78 40% 1 17.01.2028 -
Danny Cashman Crawley Town Aktiv 81 / 80 40% 2 16.01.2028 -
Emile Samyn Giana Erminio Aktiv 77 / 85 40% 1 16.01.2028 -
Sven Yidah APS Bomet Aktiv 95 / 91 40% 3 14.01.2028 -
Yves Koutiama Kenya Police Aktiv 93 / 87 40% 2 14.01.2028 -
Hansel Ochieng APS Bomet Aktiv 74 / 81 40% 2 13.01.2028 -
Mohammed Siraji Gor Mahia Aktiv 78 / 79 40% 1 13.01.2028 -
Alfred Emoni Bandari Aktiv 95 / 92 40% 12 12.01.2028 -
Erick Zakayo Kenya Police Aktiv 94 / 84 40% 1 10.01.2028 -
Hernest Malonga Kenya Police Aktiv 99 / 97 40% 1 10.01.2028 -
John Njuguna Nairobi United Aktiv 77 / 71 40% 2 09.01.2028 -
Williams Yikat Aigle Royal de Moungo Aktiv 81 / 112 40% 1 09.01.2028 -
Alain Ngeleka Bandari Aktiv 84 / 82 48% 1 07.01.2028 -
Vittorio Parigini Renate Aktiv 96 / 96 40% 2 04.01.2028 -
David Ochieng Kenya Police Aktiv 67 / 83 48% 1 02.01.2028 -
Elvis Mbugua Posta Rangers Aktiv 53 / 57 48% 1 01.01.2028 -
Kelvin Akinmola Bendel Insurance Aktiv 101 / 95 40% 3 29.12.2027 -
Daniel Kakai Bidco United Aktiv 85 / 73 40% 1 29.12.2027 -
Victor Mbaoma Tusker Aktiv 88 / 109 40% 3 25.12.2027 -
Erick Otieno Shabana Aktiv 76 / 68 40% 4 24.12.2027 -
Kelvin Osas El-Kanemi Warriors Aktiv 82 / 80 40% 1 24.12.2027 -
Chimobi Igwilo Rangers International Aktiv 91 / 89 40% 7 22.12.2027 -
Patrick Otieno KCB Aktiv 95 / 90 40% 3 22.12.2027 -
Ifeanyi Assurance Rangers International Abgelehnt 100 / 88 40% 3 19.12.2027 Ablehnen
Dennis Munyovi Muranga Seal Aktiv 86 / 68 40% 2 19.12.2027 -
Tobias Otieno Kenya Police Aktiv 77 / 94 40% 1 18.12.2027 -
Idris Saidu Barau Aktiv 81 / 95 40% 1 18.12.2027 -
Samuel Ssenyonjo AFC Leopards Aktiv 79 / 75 40% 3 16.12.2027 -
Nicholas Kipkirui KCB Aktiv 65 / 71 40% 4 15.12.2027 -
Jesse Akila Arab Contractors Aktiv 89 / 96 40% 3 14.12.2027 -
Joseph Arumala Ikorodu City Aktiv 76 / 87 40% 1 14.12.2027 -
Michael Fabbro Virtus Verona Aktiv 114 / 84 40% 1 13.12.2027 -
John Kelly Fleetwood Town Aktiv 98 / 99 40% 4 12.12.2027 -
Chisom Ngomere Kwara United Aktiv 99 / 73 40% 4 12.12.2027 -
Liam Jessop Chesterfield Aktiv 93 / 96 40% 1 12.12.2027 -
Boniface Munyendo AFC Leopards Abgelehnt 93 / 89 40% 2 11.12.2027 Mehr Infos nötig
Karim Smykov Muranga Seal Abgelehnt 94 / 78 40% 2 11.12.2027 Mehr Infos nötig
Chris Erambo Tusker Aktiv 97 / 73 40% 1 10.12.2027 -
Gafar Saka Plateau United Aktiv 85 / 86 40% 7 06.12.2027 -
Simon Munala Bidco United Aktiv 93 / 74 40% 2 06.12.2027 -
Ibrahim Sabiu Bendel Insurance Aktiv 106 / 102 40% 4 04.12.2027 -
Tosin Olawale El-Kanemi Warriors Aktiv 80 / 107 40% 4 03.12.2027 -
Tyson Otieno AFC Leopards Aktiv 87 / 83 40% 1 01.12.2027 -
Baraka Badi Kenya Police Aktiv 75 / 82 40% 1 01.12.2027 -
Promise Itoro Bendel Insurance Aktiv 101 / 86 40% 2 30.11.2027 -
Cliff Oruko Tusker Aktiv 90 / 68 40% 3 27.11.2027 -
Yafeesi Mubiru KCB Aktiv 88 / 70 40% 2 26.11.2027 -
Nyamawi Beja Bandari Aktiv 81 / 85 40% 6 25.11.2027 -
Moise Mbombo Kenya Police Aktiv 84 / 86 40% 1 25.11.2027 -
Amani Richards Zwolle Aktiv 90 / 84 40% 2 23.11.2027 -
Johnmark Atule Shooting Stars Aktiv 93 / 102 40% 4 23.11.2027 -
Joseph Atule Barau Aktiv 112 / 84 40% 2 22.11.2027 -
James Emo Rangers International Aktiv 97 / 88 40% 5 19.11.2027 -
Mustafa Kizza Nairobi United Aktiv 84 / 89 40% 3 18.11.2027 -
Oussama Gatal Bandari Aktiv 86 / 84 40% 2 18.11.2027 -
Omolabi Owolabi Kun Khalifat Aktiv 58 / 65 40% 2 16.11.2027 -
Clinton Asiago Bidco United Aktiv 79 / 83 40% 2 12.11.2027 -
Salomon Chigoziem Nasarawa United Aktiv 98 / 103 40% 2 11.11.2027 -
Amza Moubarack Bandari Aktiv 75 / 94 40% 1 11.11.2027 -
James Kinyanjui AFC Leopards Aktiv 74 / 81 40% 3 09.11.2027 -
Chinedu Nwosu Bendel Insurance Aktiv 77 / 109 40% 3 09.11.2027 -
Bassey John Enyimba Aktiv 82 / 97 40% 3 09.11.2027 -
Onyia Henry Bendel Insurance Aktiv 93 / 103 40% 2 07.11.2027 -
Felix Oluoch Gor Mahia Aktiv 88 / 80 40% 3 06.11.2027 -
Suraju Lawal Abia Warriors Aktiv 82 / 95 40% 1 04.11.2027 -
Aziz Okaka APS Bomet Aktiv 62 / 66 40% 1 29.10.2027 -
Eromosele Zibiri Warri Wolves Aktiv 85 / 76 40% 1 27.10.2027 -
Kieran Wilson Exeter City Aktiv 75 / 90 40% 3 26.10.2027 -
Max Dickov Mansfield Town Aktiv 98 / 96 40% 1 24.10.2027 -
Boniface Omondi Kakamega Homeboyz Aktiv 85 / 90 40% 3 22.10.2027 -
Eric Kapaito Tusker Aktiv 95 / 82 40% 5 16.10.2027 -
Patillah Omoto Kariobangi Sharks Aktiv 80 / 75 40% 2 13.10.2027 -
David Sakwa Bandari Aktiv 78 / 84 40% 5 13.10.2027 -
Jofrank Istifanus Nasarawa United Aktiv 95 / 74 40% 2 10.10.2027 -
Joshua Akpan Shooting Stars Aktiv 99 / 95 40% 3 06.10.2027 -
Rubén Hernández Police Union Aktiv 100 / 97 40% 1 06.10.2027 -
Isaac Mintah Asante Kotoko Aktiv 82 / 94 40% 1 06.10.2027 -
Mattia Veselji Floriana Aktiv 98 / 76 40% 1 04.10.2027 -
Joshua John Nasarawa United Aktiv 104 / 88 40% 2 03.10.2027 -
Sammy Henia-Kamau Colchester United Aktiv 55 / 74 40% 1 02.10.2027 -
Alex Imbusia Mara Sugar Aktiv 74 / 86 40% 1 27.09.2027 -
Victor Torisheju Bendel Insurance Aktiv 83 / 81 40% 3 24.09.2027 -
Alao Dabani Nasarawa United Aktiv 98 / 100 40% 3 23.09.2027 -
Solomon Odoemenam Kun Khalifat Aktiv 76 / 84 40% 2 23.09.2027 -
Abubakar Taheer Shooting Stars Aktiv 76 / 99 40% 3 15.09.2027 -
Rowland Makati KCB Aktiv 77 / 65 40% 1 14.09.2027 -
Justice Apaingolo Binga Aktiv 85 / 81 40% 1 08.09.2027 -
Daniel Mjengu Binga Aktiv 72 / 87 40% 1 07.09.2027 -
Joseph Waithira Muranga Seal Aktiv 72 / 88 40% 1 06.09.2027 -
Yakeen Muthelil Tusker Aktiv 57 / 61 40% 1 03.09.2027 -
Adama Traoré Bidco United Aktiv 79 / 82 40% 2 02.09.2027 -
Mohammed Aminu Ashanti Gold Aktiv 83 / 75 40% 1 29.08.2027 -
Mxolisi Mthiya Real Bamako Aktiv 60 / 86 40% 1 26.08.2027 -
Yusuff Adewale Afrique Foot Elite Aktiv 96 / 88 40% 1 25.08.2027 -
Solomon Nsoh Asante Kotoko Aktiv 90 / 74 40% 1 23.08.2027 -
Chinonso Chibueze Harrogate Town Aktiv 85 / 86 40% 1 17.08.2027 -
Azeez Agboola Remo Stars Aktiv 80 / 75 40% 3 16.08.2027 -
Simphiwe Masilela Aswan Aktiv 75 / 71 40% 1 15.08.2027 -
Gosiame Ngobeni New Edubiase United Aktiv 84 / 74 40% 1 13.08.2027 -
Olasunkanmi Quadri Enyimba Aktiv 70 / 81 40% 2 04.08.2027 -
Ifeanyi Ihemekwele Enyimba Aktiv 83 / 80 40% 1 30.07.2027 -
Bandile Shandu Orlando Pirates Aktiv 108 / 95 40% 3 29.07.2027 -
Harvey Saunders Tranmere Rovers Aktiv 102 / 94 40% 1 29.07.2027 -
Ronan Coughlan De Graafschap Aktiv 81 / 94 40% 1 29.07.2027 -
Idris Ajiya Nasarawa United Aktiv 69 / 104 40% 1 23.07.2027 -
Omari Patrick Swindon Town Aktiv 111 / 91 40% 1 21.07.2027 -
Tyshick Mosengo Kenya Police Aktiv 67 / 74 40% 3 16.07.2027 -
Jeremiah Okine-Peters Ospitaletto Aktiv 74 / 90 40% 2 13.07.2027 -
Deruo Wisdom Etoiles du Mande Aktiv 78 / 100 40% 1 07.07.2027 -
Ayanda Vete FC Diarra Aktiv 59 / 90 40% 1 05.07.2027 -
Francis Kahiro KCB Aktiv 66 / 89 40% 2 26.06.2027 -
Insa Badji Smouha Aktiv 76 / 90 40% 1 25.06.2027 -
Make Aldo Maulidino Gazelle Aktiv 89 / 77 40% 2 22.06.2027 -
Will Merry Milton Keynes Dons Aktiv 83 / 90 40% 1 13.06.2027 -
Michael Karamor Nairobi United Aktiv 65 / 76 40% 1 13.06.2027 -
Josephat Lopaga Kakamega Homeboyz Aktiv 91 / 95 40% 1 12.06.2027 -
Callum Stewart Shrewsbury Town Aktiv 66 / 96 40% 1 09.06.2027 -
Ernest Amoah BA All Stars Aktiv 95 / 77 40% 1 08.06.2027 -
Fuzy Taylor Medeama Aktiv 81 / 85 40% 1 08.06.2027 -
Ufere Chukwu Enyimba Aktiv 92 / 93 40% 1 28.05.2027 -
Mahamat Adam Ali AS PSI Aktiv 92 / 82 40% 1 20.04.2027 -
Charles Bassey Smouha Aktiv 84 / 97 40% 1 19.04.2027 -
Chris Sze Wigan Athletic Aktiv 77 / 91 40% 1 17.04.2027 -
Fin Roberts Crewe Alexandra Aktiv 83 / 109 40% 1 12.04.2027 -
Hatem Grine ES Mostaganem Aktiv 78 / 76 40% 1 09.04.2027 -
Aidan Dausch AC Ajaccio Aktiv 60 / 73 40% 1 05.04.2027 -
Regan Hendry Mansfield Town Aktiv 89 / 103 40% 1 03.12.2026 -
Will Spiers Cardiff City Aktiv 92 / 103 40% 1 30.11.2026 -
Valmir Matoshi Sturm Graz Aktiv 110 / 126 40% 1 27.11.2026 -
Silas Alfred Hibernians Aktiv 48 / 81 40% 1 20.11.2026 -
Makan Samabaly KCB Aktiv 87 / 108 40% 1 19.11.2026 -
Ishmael Addo Heart of Lions Aktiv 69 / 71 40% 1 15.11.2026 -
Josh Austerfield Salford City Aktiv 103 / 105 40% 1 15.11.2026 -
Augustine Afranie Bechem United Aktiv 80 / 54 40% 1 12.11.2026 -
Daniel Chesters Salford City Aktiv 93 / 81 40% 1 12.11.2026 -
Harrison Bettoni Wigan Athletic Aktiv 70 / 116 40% 1 11.11.2026 -
Williams Wonah AS Korofina Aktiv 86 / 101 40% 1 10.11.2026 -
Enock Morrison Gor Mahia Aktiv 85 / 95 40% 1 08.11.2026 -
Marvin Nabwire Kenya Police Aktiv 96 / 102 40% 1 07.10.2026 -
Bertrand Konfor Ngafei Bandari Aktiv 99 / 94 40% 1 06.10.2026 -
Ntando Ngwenya Golden Arrows Aktiv 69 / 94 40% 1 06.10.2026 -
Nikoloz Chikovani Watford Aktiv 82 / 84 40% 1 31.08.2026 -
Oliver Armstrong Crewe Alexandra Aktiv 96 / 76 40% 1 18.08.2026 -
Wisdom Samuel Rivers United Aktiv 95 / 100 40% 1 18.08.2026 -
Dominic Ball Cambridge United Aktiv 92 / 115 40% 1 01.08.2026 -